Time;durP1;ratioP1;P1;durP2;ratioP2;P2;SDS_P1;SDS_P2;PMS_P1;PMS_P2;Temp;Humidity;BMP_temperature;BMP_pressure;BME280_temperature;BME280_humidity;BME280_pressure;Samples;Min_cycle;Max_cycle;Signal;HPM_P1;HPM_P2
2021/05/28 00:00:14;;;;;;;1.08;0.98;;;;;;;10.08;71.88;96920.94;5081679;28;20053;-78
2021/05/28 00:02:40;;;;;;;0.90;0.70;;;;;;;10.09;72.01;96917.31;5084799;28;20044;-78
2021/05/28 00:05:07;;;;;;;0.95;0.95;;;;;;;10.09;72.02;96914.69;5083181;28;20036;-78
2021/05/28 00:07:33;;;;;;;1.15;0.95;;;;;;;10.08;71.96;96906.03;5083791;28;20040;-78
2021/05/28 00:10:00;;;;;;;0.88;0.88;;;;;;;10.10;72.09;96900.56;5078940;28;20043;-78
2021/05/28 00:12:26;;;;;;;0.90;0.90;;;;;;;10.09;72.24;96910.25;5087120;28;20036;-78
2021/05/28 00:14:52;;;;;;;0.90;0.90;;;;;;;10.10;72.32;96917.13;5084529;28;20040;-77
2021/05/28 00:17:18;;;;;;;0.98;0.98;;;;;;;10.09;72.39;96909.47;5084752;28;20051;-77
2021/05/28 00:19:45;;;;;;;1.30;1.20;;;;;;;10.06;72.28;96910.69;5078510;28;20036;-77
2021/05/28 00:22:11;;;;;;;1.10;1.10;;;;;;;10.07;72.42;96914.09;5079901;28;20047;-77
2021/05/28 00:24:37;;;;;;;1.20;1.10;;;;;;;10.05;72.44;96919.53;5084724;28;20404;-77
2021/05/28 00:27:03;;;;;;;1.27;1.17;;;;;;;10.04;72.39;96923.19;5085132;28;20040;-77
2021/05/28 00:29:30;;;;;;;1.98;1.00;;;;;;;10.03;72.60;96932.03;5084670;28;20035;-77
2021/05/28 00:31:57;;;;;;;1.20;1.10;;;;;;;10.00;72.51;96936.88;5082554;28;20484;-77
2021/05/28 00:34:23;;;;;;;1.60;1.10;;;;;;;9.91;72.48;96944.13;5083548;28;20036;-77
2021/05/28 00:36:49;;;;;;;1.48;1.38;;;;;;;9.79;72.40;96940.50;5065155;28;20056;-77
2021/05/28 00:39:16;;;;;;;0.98;0.98;;;;;;;9.73;72.81;96939.50;5083200;28;20061;-77
2021/05/28 00:41:42;;;;;;;1.15;1.15;;;;;;;9.69;72.94;96938.28;5082575;28;20044;-77
2021/05/28 00:44:10;;;;;;;1.27;1.17;;;;;;;9.67;73.20;96935.84;5081442;28;20041;-77
2021/05/28 00:46:36;;;;;;;0.85;0.85;;;;;;;9.65;73.11;96927.38;5087905;28;20045;-77
2021/05/28 00:49:03;;;;;;;1.10;1.00;;;;;;;9.65;73.19;96927.38;5081466;28;20032;-77
2021/05/28 00:51:29;;;;;;;1.10;1.10;;;;;;;9.66;73.39;96934.25;5080182;28;20047;-77
2021/05/28 00:53:56;;;;;;;0.98;0.98;;;;;;;9.67;73.44;96941.09;5086064;28;20036;-77
2021/05/28 00:56:25;;;;;;;1.10;1.10;;;;;;;9.65;73.41;96947.53;5084480;28;20036;-77
2021/05/28 00:58:59;;;;;;;1.20;1.10;;;;;;;9.61;73.87;96938.47;5082256;28;20043;-77
2021/05/28 01:01:25;;;;;;;1.00;0.98;;;;;;;9.58;73.73;96939.66;5083240;28;20036;-76
2021/05/28 01:03:51;;;;;;;1.15;1.08;;;;;;;9.54;73.73;96941.88;5079605;28;20465;-77
2021/05/28 01:06:18;;;;;;;1.20;1.10;;;;;;;9.51;73.90;96944.91;5082417;28;20059;-77
2021/05/28 01:08:45;;;;;;;1.17;1.17;;;;;;;9.49;74.09;96941.69;5083782;28;20041;-77
2021/05/28 01:11:11;;;;;;;1.50;1.40;;;;;;;9.47;74.28;96942.84;5089111;28;20048;-77
2021/05/28 01:13:37;;;;;;;1.20;1.20;;;;;;;9.46;74.32;96955.16;5077080;28;20040;-77
2021/05/28 01:16:08;;;;;;;1.40;1.27;;;;;;;9.45;74.53;96957.94;5085611;28;20044;-78
2021/05/28 01:18:35;;;;;;;1.50;1.40;;;;;;;9.44;74.90;96957.16;5088140;28;20029;-77
2021/05/28 01:21:01;;;;;;;1.80;1.70;;;;;;;9.41;74.76;96960.19;5087165;28;20048;-78
2021/05/28 01:23:27;;;;;;;2.28;2.08;;;;;;;9.40;75.02;96952.50;5087991;28;20040;-78
2021/05/28 01:25:54;;;;;;;2.08;1.92;;;;;;;9.40;75.34;96955.13;5079427;28;20047;-79
2021/05/28 01:28:20;;;;;;;2.00;1.90;;;;;;;9.38;75.43;96952.69;5088610;28;20043;-78
2021/05/28 01:30:46;;;;;;;1.98;1.83;;;;;;;9.39;75.52;96943.88;5085353;28;20036;-77
2021/05/28 01:33:12;;;;;;;1.95;1.80;;;;;;;9.41;75.83;96944.47;5086612;28;20048;-77
2021/05/28 01:35:38;;;;;;;1.80;1.70;;;;;;;9.42;75.66;96947.88;5086206;28;20048;-77
2021/05/28 01:38:05;;;;;;;2.30;2.20;;;;;;;9.42;76.18;96948.69;5086287;28;20040;-77
2021/05/28 01:40:33;;;;;;;2.88;2.45;;;;;;;9.42;76.41;96943.44;5085466;28;20039;-77
2021/05/28 01:42:59;;;;;;;2.08;1.98;;;;;;;9.44;76.46;96951.13;5084252;28;20036;-77
2021/05/28 01:45:26;;;;;;;2.80;2.60;;;;;;;9.44;76.72;96946.69;5085031;28;20044;-77
2021/05/28 01:47:53;;;;;;;3.22;2.97;;;;;;;9.45;77.08;96947.47;5086692;28;20056;-77
2021/05/28 01:50:19;;;;;;;2.50;2.40;;;;;;;9.43;76.98;96941.63;5089612;28;20044;-77
2021/05/28 01:52:46;;;;;;;2.83;2.72;;;;;;;9.42;77.49;96947.88;5089703;28;20040;-75
2021/05/28 01:55:14;;;;;;;2.95;2.72;;;;;;;9.39;77.67;96951.72;5090393;28;20044;-78
2021/05/28 01:57:43;;;;;;;2.78;2.42;;;;;;;9.38;77.70;96946.66;5083915;28;20031;-77
2021/05/28 02:00:12;;;;;;;3.03;2.83;;;;;;;9.34;77.96;96941.00;5079685;28;20040;-77
2021/05/28 02:02:39;;;;;;;3.00;2.80;;;;;;;9.35;78.24;96938.22;5083371;28;20471;-77
2021/05/28 02:05:07;;;;;;;2.67;2.47;;;;;;;9.34;78.16;96939.22;5085028;28;20465;-77
2021/05/28 02:07:34;;;;;;;2.90;2.75;;;;;;;9.32;78.34;96941.22;5082170;28;20036;-76
2021/05/28 02:10:00;;;;;;;3.00;2.75;;;;;;;9.32;78.47;96940.41;5085006;28;20028;-75
2021/05/28 02:12:27;;;;;;;2.88;2.78;;;;;;;9.30;78.49;96940.63;5087650;28;20047;-76
2021/05/28 02:14:57;;;;;;;2.92;2.72;;;;;;;9.30;78.71;96942.41;5088092;28;20071;-76
2021/05/28 02:17:23;;;;;;;2.83;2.65;;;;;;;9.30;78.88;96939.78;5083893;28;20055;-76
2021/05/28 02:19:49;;;;;;;3.15;2.95;;;;;;;9.29;79.00;96938.19;5084627;28;20048;-77
2021/05/28 02:22:16;;;;;;;2.90;2.70;;;;;;;9.30;79.27;96939.78;5089172;28;20040;-77
2021/05/28 02:24:42;;;;;;;3.20;2.90;;;;;;;9.31;79.32;96938.81;5085785;28;20036;-77
2021/05/28 02:27:08;;;;;;;3.42;3.15;;;;;;;9.31;79.30;96936.19;5080113;28;20048;-77
2021/05/28 02:29:35;;;;;;;3.30;3.10;;;;;;;9.29;79.51;96943.44;5086385;28;20036;-77
2021/05/28 02:32:01;;;;;;;3.00;2.80;;;;;;;9.28;79.55;96945.25;5089903;28;20044;-77
2021/05/28 02:34:27;;;;;;;2.70;2.55;;;;;;;9.28;79.30;96944.41;5082842;28;20044;-76
2021/05/28 02:36:53;;;;;;;3.85;2.28;;;;;;;9.30;79.10;96952.88;5082265;28;20052;-77
2021/05/28 02:39:19;;;;;;;1.92;1.77;;;;;;;9.28;79.00;96950.47;5091919;28;20051;-77
2021/05/28 02:41:45;;;;;;;1.90;1.80;;;;;;;9.28;78.94;96952.28;5081323;28;20036;-77
2021/05/28 02:44:11;;;;;;;1.75;1.65;;;;;;;9.27;78.80;96955.91;5085235;28;20052;-76
2021/05/28 02:46:38;;;;;;;1.88;1.77;;;;;;;9.27;78.80;96953.28;5084664;28;20041;-76
2021/05/28 02:49:04;;;;;;;2.10;1.92;;;;;;;9.27;78.84;96961.13;5087283;28;20067;-77
2021/05/28 02:51:31;;;;;;;2.25;2.10;;;;;;;9.27;78.87;96956.69;5084638;28;20477;-77
2021/05/28 02:53:57;;;;;;;2.58;2.47;;;;;;;9.25;78.87;96950.84;5080841;28;20036;-76
2021/05/28 02:56:23;;;;;;;3.53;3.25;;;;;;;9.21;79.24;96951.47;5083783;28;20496;-76
2021/05/28 02:58:49;;;;;;;2.90;2.70;;;;;;;9.15;79.41;96953.03;5081144;28;20040;-76
2021/05/28 03:01:15;;;;;;;3.05;2.85;;;;;;;9.10;79.55;96945.78;5086633;28;20051;-76
2021/05/28 03:03:42;;;;;;;3.38;3.15;;;;;;;9.11;79.76;96957.03;5087425;28;20037;-76
2021/05/28 03:06:08;;;;;;;3.40;3.10;;;;;;;9.10;79.64;96947.59;5084824;28;20493;-76
2021/05/28 03:08:34;;;;;;;3.42;3.22;;;;;;;9.08;79.90;96945.16;5085056;28;20397;-77
2021/05/28 03:11:00;;;;;;;3.40;3.20;;;;;;;9.06;80.07;96949.00;5079036;28;20044;-76
2021/05/28 03:13:27;;;;;;;3.58;3.28;;;;;;;9.05;80.22;96942.97;5083897;28;20043;-76
2021/05/28 03:15:53;;;;;;;3.40;3.20;;;;;;;9.05;80.08;96937.72;5080243;28;20481;-77
2021/05/28 03:18:21;;;;;;;3.20;3.00;;;;;;;9.06;80.22;96933.28;5090808;28;20036;-77
2021/05/28 03:20:56;;;;;;;2.92;2.72;;;;;;;9.06;80.08;96934.09;5084397;28;20032;-76
2021/05/28 03:23:23;;;;;;;3.25;2.85;;;;;;;9.07;80.16;96932.28;5085010;28;20040;-78
2021/05/28 03:25:49;;;;;;;3.08;2.88;;;;;;;9.06;80.05;96933.28;5084383;28;20033;-77
2021/05/28 03:28:15;;;;;;;3.28;3.08;;;;;;;9.05;79.96;96940.34;5083868;28;20040;-77
2021/05/28 03:30:41;;;;;;;3.15;2.95;;;;;;;9.05;80.02;96937.72;5083055;28;20059;-77
2021/05/28 03:33:07;;;;;;;3.55;3.25;;;;;;;9.03;80.03;96934.50;5081358;28;20044;-77
2021/05/28 03:35:34;;;;;;;3.17;2.97;;;;;;;9.01;80.08;96944.34;5087726;28;20041;-77
2021/05/28 03:38:01;;;;;;;3.10;2.90;;;;;;;8.99;80.02;96935.88;5084708;28;20048;-77
2021/05/28 03:40:27;;;;;;;2.80;2.70;;;;;;;9.00;80.13;96941.91;5074288;28;20032;-77
2021/05/28 03:42:53;;;;;;;3.72;3.53;;;;;;;8.99;80.07;96948.13;5086524;28;20042;-77
2021/05/28 03:45:20;;;;;;;3.10;2.90;;;;;;;8.97;80.00;96950.97;5083714;28;20044;-77
2021/05/28 03:47:46;;;;;;;2.78;2.58;;;;;;;8.95;79.93;96947.75;5080035;28;20036;-77
2021/05/28 03:50:12;;;;;;;2.78;2.67;;;;;;;8.95;79.91;96958.22;5086198;28;20041;-77
2021/05/28 03:52:39;;;;;;;2.70;2.50;;;;;;;8.93;79.83;96955.78;5091075;28;20047;-77
2021/05/28 03:55:06;;;;;;;3.00;2.80;;;;;;;8.89;79.81;96948.53;5083778;28;20048;-77
2021/05/28 03:57:32;;;;;;;2.65;2.53;;;;;;;8.88;79.66;96958.19;5083551;28;20043;-77
2021/05/28 03:59:58;;;;;;;2.95;2.75;;;;;;;8.85;79.60;96955.13;5081822;28;20040;-78
2021/05/28 04:02:24;;;;;;;2.88;2.70;;;;;;;8.84;79.50;96961.34;5082770;28;20469;-78
2021/05/28 04:04:50;;;;;;;2.88;2.70;;;;;;;8.82;79.44;96958.94;5087761;28;20044;-77
2021/05/28 04:07:17;;;;;;;3.25;2.95;;;;;;;8.81;79.39;96954.72;5083643;28;20424;-78
2021/05/28 04:09:43;;;;;;;2.63;2.53;;;;;;;8.81;79.28;96957.31;5078969;28;20057;-77
2021/05/28 04:12:09;;;;;;;2.80;2.60;;;;;;;8.81;79.09;96954.72;5089008;28;20044;-78
2021/05/28 04:14:36;;;;;;;2.30;2.20;;;;;;;8.80;79.17;96952.28;5084628;28;20044;-78
2021/05/28 04:17:02;;;;;;;2.67;2.47;;;;;;;8.81;79.07;96951.28;5076589;28;20037;-79
2021/05/28 04:19:29;;;;;;;2.70;2.50;;;;;;;8.85;79.00;96952.53;5093351;28;20042;-78
2021/05/28 04:21:55;;;;;;;2.40;2.30;;;;;;;8.87;78.95;96951.31;5078717;28;20036;-78
2021/05/28 04:24:22;;;;;;;2.35;2.22;;;;;;;8.95;78.77;96952.97;5080971;28;20044;-78
2021/05/28 04:26:48;;;;;;;2.45;2.33;;;;;;;9.05;78.79;96957.81;5087388;28;20377;-77
2021/05/28 04:29:16;;;;;;;2.42;2.28;;;;;;;9.17;78.78;96958.88;5078918;28;20040;-77
2021/05/28 04:31:42;;;;;;;2.35;2.20;;;;;;;9.34;78.61;96967.19;5075450;28;20048;-78
2021/05/28 04:34:09;;;;;;;1.95;1.85;;;;;;;9.45;78.13;96968.44;5083770;28;20400;-77
2021/05/28 04:36:35;;;;;;;2.50;2.30;;;;;;;9.55;77.97;96963.63;5079197;28;20044;-78
2021/05/28 04:39:01;;;;;;;2.53;2.33;;;;;;;9.72;77.94;96966.66;5085686;28;20032;-77
2021/05/28 04:41:27;;;;;;;2.08;1.98;;;;;;;9.83;77.47;96967.91;5084951;28;20044;-78
2021/05/28 04:43:53;;;;;;;2.42;2.00;;;;;;;9.82;76.94;96971.53;5078438;28;20032;-76
2021/05/28 04:46:20;;;;;;;2.05;1.95;;;;;;;9.80;76.60;96960.44;5082840;28;20049;-77
2021/05/28 04:48:46;;;;;;;2.00;1.90;;;;;;;9.79;76.68;96970.13;5087973;28;20103;-77
2021/05/28 04:51:12;;;;;;;1.90;1.80;;;;;;;9.83;76.68;96966.09;5093632;28;20052;-77
2021/05/28 04:53:38;;;;;;;2.40;2.30;;;;;;;10.05;76.85;96971.16;5090672;28;20036;-77
2021/05/28 04:56:05;;;;;;;2.28;2.10;;;;;;;10.31;76.80;96971.19;5080950;28;20044;-76
2021/05/28 04:58:31;;;;;;;2.65;2.47;;;;;;;10.62;76.47;96971.53;5086597;28;20066;-75
2021/05/28 05:00:57;;;;;;;2.83;2.63;;;;;;;10.85;75.84;96977.13;5086014;28;20082;-76
2021/05/28 05:03:23;;;;;;;2.85;2.65;;;;;;;11.07;75.30;96971.63;5089783;28;20059;-77
2021/05/28 05:05:49;;;;;;;3.22;2.80;;;;;;;11.30;74.74;96973.75;5079057;28;20050;-77
2021/05/28 05:08:16;;;;;;;2.78;2.58;;;;;;;11.55;74.42;96974.63;5091208;28;20397;-77
2021/05/28 05:10:42;;;;;;;2.72;2.63;;;;;;;11.79;73.84;96974.88;5088423;28;20044;-77
2021/05/28 05:13:15;;;;;;;3.20;2.90;;;;;;;11.89;72.23;96974.44;5087575;28;20043;-77
2021/05/28 05:15:42;;;;;;;3.20;3.00;;;;;;;12.08;72.86;96985.84;5087462;28;20056;-78
2021/05/28 05:18:08;;;;;;;2.67;2.47;;;;;;;12.24;72.35;96979.22;5088479;28;20044;-77
2021/05/28 05:20:36;;;;;;;3.00;2.80;;;;;;;12.34;71.89;96980.34;5084138;28;20037;-77
2021/05/28 05:23:03;;;;;;;2.80;2.70;;;;;;;12.31;71.17;96980.00;5089579;28;20036;-76
2021/05/28 05:25:30;;;;;;;3.00;2.80;;;;;;;12.33;71.20;96989.28;5088420;28;20051;-77
2021/05/28 05:27:56;;;;;;;3.00;2.80;;;;;;;12.49;71.08;96980.00;5080253;28;20056;-77
2021/05/28 05:30:22;;;;;;;2.65;2.53;;;;;;;12.47;70.40;96981.25;5087447;28;20032;-76
2021/05/28 05:32:48;;;;;;;2.72;2.60;;;;;;;12.32;70.17;96987.66;5092004;28;20033;-77
2021/05/28 05:35:15;;;;;;;3.20;2.58;;;;;;;12.18;69.90;96994.84;5085231;28;20048;-77
2021/05/28 05:37:41;;;;;;;2.55;2.38;;;;;;;12.06;69.97;96990.50;5084633;28;20044;-77
2021/05/28 05:40:09;;;;;;;2.85;2.65;;;;;;;11.97;70.17;96996.03;5084081;28;20071;-76
2021/05/28 05:42:40;;;;;;;3.03;2.83;;;;;;;11.91;70.14;96988.97;5081606;28;20492;-77
2021/05/28 05:45:09;;;;;;;3.10;2.90;;;;;;;11.85;70.29;96992.44;5087455;28;20041;-77
2021/05/28 05:47:35;;;;;;;3.38;3.10;;;;;;;11.82;70.40;96995.47;5086013;28;20028;-76
2021/05/28 05:50:03;;;;;;;3.00;2.80;;;;;;;11.73;70.15;96996.75;5092213;28;20036;-77
2021/05/28 05:52:29;;;;;;;2.20;2.10;;;;;;;11.95;70.80;96998.06;5095637;28;20054;-76
2021/05/28 05:54:56;;;;;;;2.05;1.90;;;;;;;12.29;70.24;96997.81;5086252;28;20047;-77
2021/05/28 05:57:22;;;;;;;1.77;1.67;;;;;;;12.53;69.82;96996.97;5086201;28;20400;-77
2021/05/28 05:59:49;;;;;;;2.28;2.15;;;;;;;12.66;68.86;97003.97;5089344;28;20473;-76
2021/05/28 06:02:15;;;;;;;2.20;2.10;;;;;;;12.85;68.51;97002.16;5081989;28;20460;-77
2021/05/28 06:04:41;;;;;;;2.47;2.28;;;;;;;13.00;68.06;97005.22;5085078;28;20029;-76
2021/05/28 06:07:07;;;;;;;2.47;2.38;;;;;;;13.13;67.28;97001.63;5087316;28;20036;-76
2021/05/28 06:09:33;;;;;;;2.35;2.00;;;;;;;13.27;66.59;97017.28;5087486;28;20048;-77
2021/05/28 06:12:00;;;;;;;1.92;1.83;;;;;;;13.72;67.04;97020.41;5085224;28;20037;-78
2021/05/28 06:14:26;;;;;;;2.03;1.92;;;;;;;13.93;65.54;97010.38;5088365;28;20047;-79
2021/05/28 06:16:53;;;;;;;1.80;1.70;;;;;;;14.16;65.03;97007.00;5082708;28;20032;-77
2021/05/28 06:19:20;;;;;;;1.77;1.60;;;;;;;14.37;64.02;97008.28;5084042;28;20405;-76
2021/05/28 06:21:46;;;;;;;1.80;1.70;;;;;;;14.40;63.43;97006.00;5090323;28;20043;-76
2021/05/28 06:24:12;;;;;;;1.90;1.60;;;;;;;14.36;62.98;97004.84;5083073;28;20039;-78
2021/05/28 06:26:38;;;;;;;1.70;1.60;;;;;;;14.25;62.38;97008.25;5084513;28;20036;-78
2021/05/28 06:29:06;;;;;;;1.95;1.85;;;;;;;14.01;61.96;96999.50;5082895;28;20041;-76
2021/05/28 06:31:34;;;;;;;1.80;1.70;;;;;;;13.88;62.10;97002.31;5092132;28;20032;-76
2021/05/28 06:34:01;;;;;;;2.75;1.80;;;;;;;13.95;61.97;97001.22;5087928;28;20048;-76
2021/05/28 06:36:28;;;;;;;1.58;1.50;;;;;;;13.99;61.80;97006.84;5084056;28;20044;-76
2021/05/28 06:38:54;;;;;;;1.85;1.75;;;;;;;14.21;61.68;97015.03;5082007;28;20044;-76
2021/05/28 06:41:21;;;;;;;1.42;1.30;;;;;;;14.20;61.17;97000.25;5086774;28;20040;-76
2021/05/28 06:43:48;;;;;;;2.00;1.80;;;;;;;14.10;60.82;97000.00;5090900;28;20028;-77
2021/05/28 06:46:15;;;;;;;1.77;1.67;;;;;;;14.00;60.85;97001.31;5084261;28;20039;-76
2021/05/28 06:48:42;;;;;;;1.77;1.65;;;;;;;13.88;60.65;97005.78;5079867;28;20044;-76
2021/05/28 06:51:09;;;;;;;1.70;1.60;;;;;;;13.80;60.82;97006.09;5084758;28;20036;-75
2021/05/28 06:53:36;;;;;;;1.90;1.63;;;;;;;13.75;60.87;97012.06;5086770;28;20032;-75
2021/05/28 06:56:03;;;;;;;2.00;1.80;;;;;;;13.80;60.92;97008.75;5088340;28;20044;-76
2021/05/28 06:58:30;;;;;;;1.88;1.77;;;;;;;14.08;60.93;97008.13;5084343;28;20491;-75
2021/05/28 07:00:57;;;;;;;1.40;1.40;;;;;;;14.29;60.54;97009.41;5085425;28;20051;-76
2021/05/28 07:03:23;;;;;;;1.60;1.50;;;;;;;14.43;60.13;97009.22;5065770;28;20051;-76
2021/05/28 07:05:49;;;;;;;3.53;2.00;;;;;;;14.61;59.86;97003.84;5090112;28;20039;-75
2021/05/28 07:08:16;;;;;;;2.33;1.90;;;;;;;14.60;59.50;97005.69;5081255;28;20050;-75
2021/05/28 07:10:42;;;;;;;1.73;1.63;;;;;;;14.53;59.32;97006.78;5084417;28;20032;-75
2021/05/28 07:13:09;;;;;;;2.08;1.88;;;;;;;14.43;59.40;97014.50;5083746;28;20036;-75
2021/05/28 07:15:37;;;;;;;1.70;1.60;;;;;;;14.36;59.45;97014.59;5088812;28;20041;-76
2021/05/28 07:18:05;;;;;;;1.52;1.42;;;;;;;14.32;59.53;97019.53;5085919;28;20047;-76
2021/05/28 07:20:32;;;;;;;1.70;1.60;;;;;;;14.31;59.46;97017.91;5085249;28;20040;-76
2021/05/28 07:22:58;;;;;;;1.88;1.77;;;;;;;14.27;59.19;97014.13;5077538;28;20028;-76
2021/05/28 07:25:25;;;;;;;1.90;1.80;;;;;;;14.22;59.51;97006.09;5085184;28;20044;-76
2021/05/28 07:27:52;;;;;;;1.88;1.77;;;;;;;14.19;59.52;97015.28;5089492;28;20484;-76
2021/05/28 07:30:19;;;;;;;1.60;1.50;;;;;;;14.18;59.54;97018.94;5088442;28;20047;-76
2021/05/28 07:32:45;;;;;;;1.95;1.75;;;;;;;14.20;59.67;97018.72;5082757;28;20043;-76
2021/05/28 07:35:12;;;;;;;2.45;1.73;;;;;;;14.21;59.58;97009.75;5081884;28;20420;-76
2021/05/28 07:37:38;;;;;;;1.83;1.70;;;;;;;14.17;59.44;97016.50;5081261;28;20044;-76
2021/05/28 07:40:09;;;;;;;1.80;1.67;;;;;;;14.24;59.36;97011.94;5087328;28;20048;-77
2021/05/28 07:42:35;;;;;;;1.98;1.80;;;;;;;14.32;59.47;97008.16;5082565;28;20036;-78
2021/05/28 07:45:03;;;;;;;1.80;1.70;;;;;;;14.46;59.56;97009.56;5082819;28;20052;-77
2021/05/28 07:47:29;;;;;;;1.63;1.52;;;;;;;14.59;59.20;97008.56;5080648;28;20365;-75
2021/05/28 07:49:55;;;;;;;2.10;2.00;;;;;;;14.78;59.02;97010.06;5082987;28;20047;-76
2021/05/28 07:52:22;;;;;;;1.48;1.38;;;;;;;15.02;58.71;97010.03;5074545;28;20044;-76
2021/05/28 07:54:49;;;;;;;1.50;1.40;;;;;;;15.16;57.89;97011.38;5085126;28;20036;-75
2021/05/28 07:57:15;;;;;;;1.40;1.30;;;;;;;15.23;57.57;97005.97;5083925;28;20048;-77
2021/05/28 07:59:41;;;;;;;1.40;1.30;;;;;;;15.46;57.22;96999.03;5080011;28;20043;-77
2021/05/28 08:02:08;;;;;;;1.70;1.10;;;;;;;15.69;56.51;96992.84;5081492;28;20043;-76
2021/05/28 08:04:34;;;;;;;1.63;1.00;;;;;;;15.70;55.77;96982.00;5084602;28;20036;-77
2021/05/28 08:07:00;;;;;;;1.40;1.30;;;;;;;15.69;55.37;96977.78;5082831;28;20036;-77
2021/05/28 08:09:26;;;;;;;1.02;1.00;;;;;;;15.69;55.00;96982.25;5090750;28;20040;-77
2021/05/28 08:11:53;;;;;;;1.33;1.23;;;;;;;15.66;54.69;96972.94;5077759;28;20464;-77
2021/05/28 08:14:19;;;;;;;1.85;1.13;;;;;;;15.52;54.46;96964.50;5084731;28;20039;-77
2021/05/28 08:16:45;;;;;;;1.30;1.20;;;;;;;15.45;54.56;96966.47;5081750;28;20040;-78
2021/05/28 08:19:11;;;;;;;2.08;1.38;;;;;;;15.77;54.52;96966.84;5088743;28;20067;-77
2021/05/28 08:21:38;;;;;;;1.20;1.20;;;;;;;16.34;54.32;96970.41;5081739;28;20040;-75
2021/05/28 08:24:04;;;;;;;1.23;1.23;;;;;;;16.77;52.59;96939.75;5077110;28;20044;-77
2021/05/28 08:26:31;;;;;;;2.03;1.25;;;;;;;16.77;51.73;96934.47;5084666;28;20040;-77
2021/05/28 08:28:57;;;;;;;1.58;1.48;;;;;;;17.13;51.87;96938.38;5087132;28;20477;-77
2021/05/28 08:31:24;;;;;;;2.03;1.25;;;;;;;17.39;51.27;96930.72;5082743;28;20473;-77
2021/05/28 08:33:50;;;;;;;1.50;1.15;;;;;;;17.64;50.70;96920.34;5079457;28;20045;-77
2021/05/28 08:36:16;;;;;;;1.40;1.20;;;;;;;17.75;49.90;96910.63;5083944;28;20060;-77
2021/05/28 08:38:42;;;;;;;2.35;1.38;;;;;;;17.39;49.31;96922.75;5086869;28;20048;-78
2021/05/28 08:41:10;;;;;;;1.20;1.10;;;;;;;16.99;49.75;96927.34;5087250;28;20043;-77
2021/05/28 08:43:37;;;;;;;1.40;1.30;;;;;;;16.67;49.89;96931.66;5083872;28;20044;-77
2021/05/28 08:46:06;;;;;;;1.83;1.30;;;;;;;16.44;50.74;96944.88;5087464;28;20036;-77
2021/05/28 08:48:33;;;;;;;2.90;1.50;;;;;;;16.23;50.92;96950.91;5079713;28;20048;-77
2021/05/28 08:50:59;;;;;;;2.05;1.23;;;;;;;16.01;50.99;96942.91;5083822;28;20036;-76
2021/05/28 08:53:28;;;;;;;1.80;1.15;;;;;;;15.79;51.26;96956.00;5089938;28;20040;-77
2021/05/28 08:55:54;;;;;;;1.15;1.08;;;;;;;15.77;51.56;96960.72;5081442;28;20044;-79
2021/05/28 08:58:22;;;;;;;1.40;1.30;;;;;;;15.76;51.81;96954.66;5078385;28;20040;-76
2021/05/28 09:00:49;;;;;;;2.22;1.20;;;;;;;15.81;51.57;96951.28;5090116;28;20412;-75
2021/05/28 09:03:21;;;;;;;1.17;1.02;;;;;;;15.86;51.25;96947.94;5082491;28;20044;-76
2021/05/28 09:05:49;;;;;;;1.10;1.10;;;;;;;15.92;51.53;96953.06;5079224;28;20036;-77
2021/05/28 09:08:31;;;;;;;1.25;1.15;;;;;;;16.13;50.05;96945.47;5078245;28;20041;-77
2021/05/28 09:11:03;;;;;;;1.30;1.20;;;;;;;16.53;50.57;96931.25;5094330;28;20043;-77
2021/05/28 09:13:30;;;;;;;1.40;1.27;;;;;;;16.72;50.22;96939.69;5091338;28;20046;-78
2021/05/28 09:16:06;;;;;;;1.35;1.20;;;;;;;16.93;49.22;96924.91;5084081;28;20051;-77
2021/05/28 09:18:48;;;;;;;1.98;1.20;;;;;;;17.16;48.81;96926.50;5082331;28;20411;-76
2021/05/28 09:21:28;;;;;;;1.25;1.13;;;;;;;17.14;47.44;96915.34;5077796;28;20073;-77
2021/05/28 09:23:55;;;;;;;1.25;1.15;;;;;;;17.31;48.91;96925.84;5082473;28;20036;-76
2021/05/28 09:26:24;;;;;;;1.35;1.00;;;;;;;17.42;47.79;96922.25;5080377;28;20041;-76
2021/05/28 09:28:55;;;;;;;0.93;0.93;;;;;;;17.34;48.03;96923.50;5088843;28;20043;-76
2021/05/28 09:31:23;;;;;;;1.05;1.05;;;;;;;17.20;47.90;96920.44;5079577;28;20040;-77
2021/05/28 09:34:02;;;;;;;2.38;0.90;;;;;;;17.37;47.91;96916.91;5077691;28;20044;-78
2021/05/28 09:36:37;;;;;;;1.70;1.17;;;;;;;17.59;47.53;96914.19;5086306;28;20048;-77
2021/05/28 09:39:12;;;;;;;1.23;1.13;;;;;;;17.79;46.57;96898.47;5086300;28;20044;-77
2021/05/28 09:41:43;;;;;;;1.02;1.02;;;;;;;17.96;46.67;96916.94;5086884;28;20047;-76
2021/05/28 09:44:12;;;;;;;1.65;1.08;;;;;;;18.14;46.63;96918.41;5083323;28;20036;-76
2021/05/28 09:47:02;;;;;;;1.27;1.17;;;;;;;18.21;44.99;96919.00;5088243;28;20043;-76
2021/05/28 09:49:45;;;;;;;1.30;0.90;;;;;;;18.52;43.70;96921.03;5095837;28;20051;-76
2021/05/28 09:52:16;;;;;;;0.85;0.85;;;;;;;18.80;44.20;96938.50;5085612;28;20040;-75
2021/05/28 09:55:06;;;;;;;1.73;1.00;;;;;;;19.19;43.57;96935.44;5085002;28;20033;-76
2021/05/28 09:57:41;;;;;;;1.25;0.90;;;;;;;19.44;42.53;96924.91;5086719;28;20035;-75
2021/05/28 10:00:20;;;;;;;0.77;0.77;;;;;;;19.72;43.29;96930.00;5086194;28;20040;-76
2021/05/28 10:02:47;;;;;;;0.77;0.75;;;;;;;19.77;42.82;96932.69;5089168;28;20044;-77
2021/05/28 10:05:25;;;;;;;1.05;1.05;;;;;;;19.53;42.27;96933.16;5079109;28;20048;-77
2021/05/28 10:07:54;;;;;;;0.88;0.88;;;;;;;19.30;42.70;96933.63;5089407;28;20033;-77
2021/05/28 10:10:20;;;;;;;1.90;1.08;;;;;;;19.07;42.83;96941.00;5088473;28;20484;-77
2021/05/28 10:12:48;;;;;;;1.50;1.00;;;;;;;18.83;42.72;96938.75;5083217;28;20039;-76
2021/05/28 10:15:15;;;;;;;1.02;1.02;;;;;;;18.78;43.13;96936.09;5084009;28;20044;-77
2021/05/28 10:17:41;;;;;;;0.85;0.82;;;;;;;18.85;43.35;96933.19;5087926;28;20037;-77
2021/05/28 10:20:08;;;;;;;1.27;1.17;;;;;;;18.98;43.78;96934.56;5085748;28;20033;-77
2021/05/28 10:22:35;;;;;;;1.33;1.23;;;;;;;19.15;43.55;96935.19;5090471;28;20051;-75
2021/05/28 10:25:05;;;;;;;1.98;1.15;;;;;;;19.22;43.33;96930.41;5085203;28;20103;-77
2021/05/28 10:27:32;;;;;;;1.83;1.27;;;;;;;19.11;43.23;96931.44;5082825;28;20028;-76
2021/05/28 10:30:11;;;;;;;1.30;1.20;;;;;;;19.01;43.64;96928.75;5089068;28;20453;-76
2021/05/28 10:32:37;;;;;;;1.38;1.27;;;;;;;19.22;43.29;96938.41;5090610;28;20055;-76
2021/05/28 10:35:11;;;;;;;1.23;1.13;;;;;;;19.41;43.05;96922.75;5086705;28;20055;-76
2021/05/28 10:37:39;;;;;;;;;;;;;;;19.48;41.00;96910.00;5084949;28;20526;-75
2021/05/28 10:40:28;;;;;;;1.58;1.10;;;;;;;19.72;42.47;96930.00;5080762;28;19924;-76
2021/05/28 10:42:58;;;;;;;1.00;1.00;;;;;;;19.79;40.90;96926.03;5075198;28;20044;-77
2021/05/28 10:45:56;;;;;;;1.20;1.10;;;;;;;19.34;40.75;96918.75;5075348;28;20049;-78
2021/05/28 10:48:42;;;;;;;1.40;1.02;;;;;;;19.09;41.48;96932.75;5075515;28;20044;-75
2021/05/28 10:51:23;;;;;;;1.13;1.13;;;;;;;19.10;41.60;96931.72;5090262;28;20044;-76
2021/05/28 10:53:52;;;;;;;1.08;1.05;;;;;;;19.17;42.10;96940.22;5084004;28;20036;-75
2021/05/28 10:56:22;;;;;;;0.90;0.90;;;;;;;19.33;42.04;96933.13;5085264;28;20035;-75
2021/05/28 10:58:57;;;;;;;1.02;0.93;;;;;;;19.55;41.76;96927.56;5084390;28;20040;-75
2021/05/28 11:01:35;;;;;;;0.93;0.90;;;;;;;19.51;41.36;96927.31;5079858;28;20032;-75
2021/05/28 11:04:06;;;;;;;1.00;0.95;;;;;;;19.20;40.97;96921.91;5085294;28;20043;-75
2021/05/28 11:06:34;;;;;;;1.00;0.90;;;;;;;18.90;41.59;96929.75;5086784;28;20380;-75
2021/05/28 11:09:08;;;;;;;0.60;0.60;;;;;;;18.74;41.76;96934.19;5085112;28;20427;-75
2021/05/28 11:11:41;;;;;;;1.17;0.90;;;;;;;18.77;42.31;96937.13;5086524;28;20059;-75
2021/05/28 11:14:19;;;;;;;1.70;1.00;;;;;;;18.91;42.07;96942.00;5074901;28;20048;-75
2021/05/28 11:16:51;;;;;;;1.25;1.10;;;;;;;19.18;42.84;96944.50;5089340;28;20051;-75
2021/05/28 11:19:40;;;;;;;1.67;1.10;;;;;;;19.14;42.48;96938.09;5077998;28;20043;-75
2021/05/28 11:22:11;;;;;;;1.27;1.17;;;;;;;19.16;42.31;96936.78;5083950;28;20040;-74
2021/05/28 11:24:57;;;;;;;1.08;1.08;;;;;;;19.22;43.04;96946.38;5088225;28;20043;-74
2021/05/28 11:27:23;;;;;;;2.35;1.20;;;;;;;19.44;42.41;96937.38;5088637;28;20044;-75
2021/05/28 11:29:55;;;;;;;1.20;1.10;;;;;;;19.47;42.26;96940.31;5079635;28;20396;-75
2021/05/28 11:32:44;;;;;;;1.30;1.20;;;;;;;19.79;42.25;96925.25;5081054;28;20043;-75
2021/05/28 11:35:13;;;;;;;1.30;1.20;;;;;;;20.04;41.99;96922.59;5084222;28;20051;-75
2021/05/28 11:37:56;;;;;;;1.33;1.20;;;;;;;20.13;40.68;96903.41;5083834;28;20052;-75
2021/05/28 11:40:28;;;;;;;1.45;1.35;;;;;;;19.96;41.20;96915.13;5089914;28;20071;-75